AKDT,Max TemperatureF,Mean TemperatureF,Min TemperatureF,Max Dew PointF,MeanDew PointF,Min DewpointF,Max Humidity, Mean Humidity, Min Humidity, Max Sea Level PressureIn, Mean Sea Level PressureIn, Min Sea Level PressureIn, Max VisibilityMiles, Mean VisibilityMiles, Min VisibilityMiles, Max Wind SpeedMPH, Mean Wind SpeedMPH, Max Gust SpeedMPH,PrecipitationIn, CloudCover, Events, WindDirDegrees
2013-4-1,43,38,32,31,27,24,0,0,0,30.14,30.08,30.04,10,10,10,10,8,14,0.00,4,,295
2013-4-2,41,33,25,32,26,20,0,0,0,30.12,30.11,30.09,10,10,10,12,6,15,T,6,Rain-Snow,168
2013-4-3,42,38,33,36,34,32,0,0,0,30.14,30.11,30.09,10,10,3,24,14,30,0.11,7,Rain-Snow,101
2013-4-4,41,39,36,34,33,30,0,0,0,30.08,29.90,29.70,10,9,2,23,15,25,0.01,8,Rain-Snow,56
2013-4-5,43,40,36,31,28,25,0,0,0,29.68,29.54,29.47,10,10,9,17,10,21,T,6,Snow,52
2013-4-6,44,35,26,27,23,14,0,0,0,29.59,29.47,29.42,10,10,10,16,6,20,0.00,5,,276
2013-4-7,31,28,24,19,10,3,0,0,0,29.78,29.72,29.60,10,9,3,20,10,24,0.00,5,Snow,320
2013-4-8,29,25,20,12,8,2,0,0,0,29.75,29.55,29.37,10,9,1,24,12,31,T,2,,293
2013-4-9,21,19,16,12,2,-4,0,0,0,29.67,29.38,29.26,10,10,6,36,17,47,T,3,Snow,262
2013-4-10,27,21,15,7,2,-3,0,0,0,30.02,29.88,29.68,10,10,10,21,9,25,0.00,3,,261
2013-4-11,28,21,13,19,11,6,0,0,0,30.13,30.03,30.01,10,9,3,15,8,18,T,4,Snow,294
2013-4-12,33,26,19,14,9,2,0,0,0,30.16,30.12,30.09,10,10,8,23,10,33,T,2,Snow,281
2013-4-13,37,29,21,13,8,4,0,0,0,30.43,30.28,30.17,10,10,10,24,12,30,0.00,2,,285
2013-4-14,46,36,25,28,17,8,0,0,0,30.53,30.49,30.44,10,10,10,8,7,10,0.00,2,,280
2013-4-15,43,34,25,32,24,18,0,0,0,30.46,30.33,30.22,10,10,10,14,5,16,0.00,5,,6
2013-4-16,43,39,35,27,19,10,0,0,0,30.20,30.13,30.10,10,10,6,22,8,29,T,4,Rain-Snow,330
2013-4-17,42,32,22,26,18,11,0,0,0,30.16,30.14,30.13,10,10,2,12,6,14,0.00,1,,263
2013-4-18,42,33,24,25,21,14,0,0,0,30.16,30.14,30.12,10,10,2,12,7,15,0.00,1,,23
2013-4-19,45,35,24,30,23,16,0,0,0,30.32,30.23,30.16,10,10,10,12,6,16,0.00,1,,319
2013-4-20,40,36,31,34,29,23,0,0,0,30.36,30.33,30.28,10,8,5,24,12,28,0.13,7,Rain-Snow,49
2013-4-21,38,35,32,34,32,30,0,0,0,30.36,30.22,30.14,10,6,2,23,13,32,1.25,7,Rain-Snow,323
2013-4-22,41,38,35,38,35,30,0,0,0,30.42,30.38,30.32,10,8,3,25,14,30,0.56,7,Rain,15
2013-4-23,45,42,38,40,38,36,0,0,0,30.37,30.30,30.26,10,7,3,23,10,29,0.48,8,Rain,326
2013-4-24,52,42,32,40,36,31,0,0,0,30.37,30.16,29.86,10,10,10,21,7,32,0.00,6,,293
2013-4-25,46,42,38,33,21,13,0,0,0,29.85,29.75,29.67,10,10,10,28,15,40,T,2,,306
2013-4-26,49,42,35,24,17,6,0,0,0,29.74,29.65,29.55,10,10,10,24,14,33,0.00,1,,287
2013-4-27,45,39,33,30,23,18,0,0,0,29.96,29.75,29.58,10,9,4,24,14,31,0.01,5,Snow,292
2013-4-28,46,38,30,23,18,16,0,0,0,30.20,30.07,29.95,10,10,10,23,10,31,0.00,0,,302
2013-4-29,48,37,26,37,26,20,0,0,0,30.22,30.19,30.14,10,10,10,12,7,14,0.00,1,,336
2013-4-30,46,37,28,35,29,24,0,0,0,30.13,29.91,29.70,10,10,10,15,8,18,T,4,,64